sensor_id;sensor_type;location;lat;lon;timestamp;P1;durP1;ratioP1;P2;durP2;ratioP2
8889;SDS011;4481;43.406;24.454;2023-02-25T00:00:04;33.50;;;21.47;;
8889;SDS011;4481;43.406;24.454;2023-02-25T00:02:42;32.70;;;21.50;;
8889;SDS011;4481;43.406;24.454;2023-02-25T00:05:08;33.03;;;23.37;;
8889;SDS011;4481;43.406;24.454;2023-02-25T00:07:34;29.77;;;22.23;;
8889;SDS011;4481;43.406;24.454;2023-02-25T00:10:00;33.13;;;23.70;;
8889;SDS011;4481;43.406;24.454;2023-02-25T00:12:27;36.70;;;22.40;;
8889;SDS011;4481;43.406;24.454;2023-02-25T00:14:54;34.13;;;22.47;;
8889;SDS011;4481;43.406;24.454;2023-02-25T00:17:20;37.37;;;23.27;;
8889;SDS011;4481;43.406;24.454;2023-02-25T00:19:47;30.00;;;22.13;;
8889;SDS011;4481;43.406;24.454;2023-02-25T00:22:13;36.53;;;23.23;;
8889;SDS011;4481;43.406;24.454;2023-02-25T00:24:39;37.10;;;24.20;;
8889;SDS011;4481;43.406;24.454;2023-02-25T00:27:05;36.63;;;24.53;;
8889;SDS011;4481;43.406;24.454;2023-02-25T00:29:31;35.87;;;24.97;;
8889;SDS011;4481;43.406;24.454;2023-02-25T00:31:58;36.43;;;25.23;;
8889;SDS011;4481;43.406;24.454;2023-02-25T00:34:24;38.37;;;23.63;;
8889;SDS011;4481;43.406;24.454;2023-02-25T00:36:51;41.90;;;26.17;;
8889;SDS011;4481;43.406;24.454;2023-02-25T00:39:18;40.20;;;26.47;;
8889;SDS011;4481;43.406;24.454;2023-02-25T00:41:44;40.00;;;26.87;;
8889;SDS011;4481;43.406;24.454;2023-02-25T00:44:10;39.87;;;26.60;;
8889;SDS011;4481;43.406;24.454;2023-02-25T00:46:37;41.27;;;27.10;;
8889;SDS011;4481;43.406;24.454;2023-02-25T00:49:03;45.17;;;30.47;;
8889;SDS011;4481;43.406;24.454;2023-02-25T00:51:30;46.53;;;29.70;;
8889;SDS011;4481;43.406;24.454;2023-02-25T00:53:58;42.07;;;27.83;;
8889;SDS011;4481;43.406;24.454;2023-02-25T00:56:24;33.73;;;24.47;;
8889;SDS011;4481;43.406;24.454;2023-02-25T00:58:51;36.43;;;24.50;;
8889;SDS011;4481;43.406;24.454;2023-02-25T01:01:19;33.97;;;23.50;;
8889;SDS011;4481;43.406;24.454;2023-02-25T01:03:47;37.23;;;24.50;;
8889;SDS011;4481;43.406;24.454;2023-02-25T01:06:15;38.17;;;24.13;;
8889;SDS011;4481;43.406;24.454;2023-02-25T01:08:41;30.77;;;21.90;;
8889;SDS011;4481;43.406;24.454;2023-02-25T01:11:12;31.40;;;22.53;;
8889;SDS011;4481;43.406;24.454;2023-02-25T01:13:40;28.90;;;21.57;;
8889;SDS011;4481;43.406;24.454;2023-02-25T01:16:10;33.00;;;22.03;;
8889;SDS011;4481;43.406;24.454;2023-02-25T01:18:37;33.67;;;22.90;;
8889;SDS011;4481;43.406;24.454;2023-02-25T01:21:04;36.53;;;23.43;;
8889;SDS011;4481;43.406;24.454;2023-02-25T01:23:30;32.43;;;21.80;;
8889;SDS011;4481;43.406;24.454;2023-02-25T01:25:56;32.43;;;21.93;;
8889;SDS011;4481;43.406;24.454;2023-02-25T01:28:23;27.73;;;20.17;;
8889;SDS011;4481;43.406;24.454;2023-02-25T01:30:49;34.50;;;21.43;;
8889;SDS011;4481;43.406;24.454;2023-02-25T01:33:16;35.27;;;22.63;;
8889;SDS011;4481;43.406;24.454;2023-02-25T01:35:42;33.50;;;24.30;;
8889;SDS011;4481;43.406;24.454;2023-02-25T01:38:08;35.73;;;23.07;;
8889;SDS011;4481;43.406;24.454;2023-02-25T01:40:34;36.73;;;23.27;;
8889;SDS011;4481;43.406;24.454;2023-02-25T01:43:02;38.33;;;24.17;;
8889;SDS011;4481;43.406;24.454;2023-02-25T01:45:30;37.40;;;23.53;;
8889;SDS011;4481;43.406;24.454;2023-02-25T01:47:59;31.87;;;22.73;;
8889;SDS011;4481;43.406;24.454;2023-02-25T01:50:43;40.27;;;24.93;;
8889;SDS011;4481;43.406;24.454;2023-02-25T01:53:13;41.70;;;25.50;;
8889;SDS011;4481;43.406;24.454;2023-02-25T01:55:42;37.17;;;23.27;;
8889;SDS011;4481;43.406;24.454;2023-02-25T01:58:08;36.60;;;24.17;;
8889;SDS011;4481;43.406;24.454;2023-02-25T02:00:37;41.80;;;23.90;;
8889;SDS011;4481;43.406;24.454;2023-02-25T02:03:04;39.47;;;24.77;;
8889;SDS011;4481;43.406;24.454;2023-02-25T02:05:45;32.03;;;23.87;;
8889;SDS011;4481;43.406;24.454;2023-02-25T02:08:20;39.80;;;25.33;;
8889;SDS011;4481;43.406;24.454;2023-02-25T02:10:48;36.10;;;24.30;;
8889;SDS011;4481;43.406;24.454;2023-02-25T02:13:14;36.13;;;25.17;;
8889;SDS011;4481;43.406;24.454;2023-02-25T02:15:43;37.13;;;25.70;;
8889;SDS011;4481;43.406;24.454;2023-02-25T02:18:19;36.73;;;26.00;;
8889;SDS011;4481;43.406;24.454;2023-02-25T02:20:49;40.87;;;26.40;;
8889;SDS011;4481;43.406;24.454;2023-02-25T02:23:33;37.80;;;25.13;;
8889;SDS011;4481;43.406;24.454;2023-02-25T02:32:15;37.73;;;25.33;;
8889;SDS011;4481;43.406;24.454;2023-02-25T02:34:49;40.50;;;25.57;;
8889;SDS011;4481;43.406;24.454;2023-02-25T02:37:25;36.80;;;24.57;;
8889;SDS011;4481;43.406;24.454;2023-02-25T02:40:03;32.77;;;24.90;;
8889;SDS011;4481;43.406;24.454;2023-02-25T02:42:40;40.43;;;24.97;;
8889;SDS011;4481;43.406;24.454;2023-02-25T02:45:15;37.57;;;23.93;;
8889;SDS011;4481;43.406;24.454;2023-02-25T02:47:45;33.27;;;24.77;;
8889;SDS011;4481;43.406;24.454;2023-02-25T02:50:17;36.30;;;24.73;;
8889;SDS011;4481;43.406;24.454;2023-02-25T02:52:52;34.77;;;24.20;;
8889;SDS011;4481;43.406;24.454;2023-02-25T02:55:21;37.10;;;22.83;;
8889;SDS011;4481;43.406;24.454;2023-02-25T02:57:52;35.33;;;24.03;;
8889;SDS011;4481;43.406;24.454;2023-02-25T03:00:23;38.93;;;24.33;;
8889;SDS011;4481;43.406;24.454;2023-02-25T03:02:54;32.50;;;22.97;;
8889;SDS011;4481;43.406;24.454;2023-02-25T03:05:26;34.03;;;22.10;;
8889;SDS011;4481;43.406;24.454;2023-02-25T03:07:54;34.53;;;23.07;;
8889;SDS011;4481;43.406;24.454;2023-02-25T03:10:28;38.80;;;24.17;;
8889;SDS011;4481;43.406;24.454;2023-02-25T03:12:54;34.90;;;23.13;;
8889;SDS011;4481;43.406;24.454;2023-02-25T03:15:20;32.83;;;22.83;;
8889;SDS011;4481;43.406;24.454;2023-02-25T03:17:49;35.23;;;23.10;;
8889;SDS011;4481;43.406;24.454;2023-02-25T03:20:20;39.50;;;23.60;;
8889;SDS011;4481;43.406;24.454;2023-02-25T03:22:50;29.20;;;17.93;;
8889;SDS011;4481;43.406;24.454;2023-02-25T03:25:20;31.83;;;20.53;;
8889;SDS011;4481;43.406;24.454;2023-02-25T03:27:48;35.93;;;19.77;;
8889;SDS011;4481;43.406;24.454;2023-02-25T03:30:17;32.63;;;21.00;;
8889;SDS011;4481;43.406;24.454;2023-02-25T03:32:50;29.63;;;21.40;;
8889;SDS011;4481;43.406;24.454;2023-02-25T03:35:21;36.63;;;26.60;;
8889;SDS011;4481;43.406;24.454;2023-02-25T03:37:52;39.80;;;27.87;;
8889;SDS011;4481;43.406;24.454;2023-02-25T03:40:23;39.07;;;24.97;;
8889;SDS011;4481;43.406;24.454;2023-02-25T03:42:52;33.57;;;24.00;;
8889;SDS011;4481;43.406;24.454;2023-02-25T03:45:23;34.77;;;23.37;;
8889;SDS011;4481;43.406;24.454;2023-02-25T03:47:50;31.33;;;22.93;;
8889;SDS011;4481;43.406;24.454;2023-02-25T03:50:18;31.03;;;22.27;;
8889;SDS011;4481;43.406;24.454;2023-02-25T03:52:47;34.47;;;22.13;;
8889;SDS011;4481;43.406;24.454;2023-02-25T03:55:13;30.20;;;19.87;;
8889;SDS011;4481;43.406;24.454;2023-02-25T03:57:42;33.57;;;20.20;;
8889;SDS011;4481;43.406;24.454;2023-02-25T04:00:13;30.53;;;20.77;;
8889;SDS011;4481;43.406;24.454;2023-02-25T04:02:44;28.60;;;19.17;;
8889;SDS011;4481;43.406;24.454;2023-02-25T04:05:12;31.97;;;21.40;;
8889;SDS011;4481;43.406;24.454;2023-02-25T04:07:39;37.10;;;21.47;;
8889;SDS011;4481;43.406;24.454;2023-02-25T04:10:07;36.70;;;21.93;;
8889;SDS011;4481;43.406;24.454;2023-02-25T04:12:35;33.77;;;21.77;;
8889;SDS011;4481;43.406;24.454;2023-02-25T04:15:01;33.20;;;21.57;;
8889;SDS011;4481;43.406;24.454;2023-02-25T04:17:27;37.00;;;21.73;;
8889;SDS011;4481;43.406;24.454;2023-02-25T04:19:54;31.93;;;21.90;;
8889;SDS011;4481;43.406;24.454;2023-02-25T04:22:20;33.10;;;23.47;;
8889;SDS011;4481;43.406;24.454;2023-02-25T04:24:46;38.00;;;23.03;;
8889;SDS011;4481;43.406;24.454;2023-02-25T04:27:13;31.50;;;22.43;;
8889;SDS011;4481;43.406;24.454;2023-02-25T04:29:40;35.80;;;23.43;;
8889;SDS011;4481;43.406;24.454;2023-02-25T04:32:06;36.10;;;23.10;;
8889;SDS011;4481;43.406;24.454;2023-02-25T04:34:32;39.13;;;24.53;;
8889;SDS011;4481;43.406;24.454;2023-02-25T04:36:58;41.30;;;28.10;;
8889;SDS011;4481;43.406;24.454;2023-02-25T04:39:26;44.30;;;27.13;;
8889;SDS011;4481;43.406;24.454;2023-02-25T04:41:53;39.10;;;26.40;;
8889;SDS011;4481;43.406;24.454;2023-02-25T04:44:20;39.77;;;25.53;;
8889;SDS011;4481;43.406;24.454;2023-02-25T04:46:46;35.73;;;24.67;;
8889;SDS011;4481;43.406;24.454;2023-02-25T04:49:16;36.33;;;24.13;;
8889;SDS011;4481;43.406;24.454;2023-02-25T04:51:43;35.30;;;24.80;;
8889;SDS011;4481;43.406;24.454;2023-02-25T04:54:10;37.60;;;24.17;;
8889;SDS011;4481;43.406;24.454;2023-02-25T04:56:37;38.30;;;24.03;;
8889;SDS011;4481;43.406;24.454;2023-02-25T04:59:04;33.53;;;23.87;;
8889;SDS011;4481;43.406;24.454;2023-02-25T05:01:31;35.80;;;23.57;;
8889;SDS011;4481;43.406;24.454;2023-02-25T05:03:57;32.77;;;23.07;;
8889;SDS011;4481;43.406;24.454;2023-02-25T05:06:24;39.07;;;24.20;;
8889;SDS011;4481;43.406;24.454;2023-02-25T05:08:51;38.00;;;23.93;;
8889;SDS011;4481;43.406;24.454;2023-02-25T05:11:18;37.33;;;24.70;;
8889;SDS011;4481;43.406;24.454;2023-02-25T05:13:44;37.43;;;23.20;;
8889;SDS011;4481;43.406;24.454;2023-02-25T05:16:11;37.40;;;24.50;;
8889;SDS011;4481;43.406;24.454;2023-02-25T05:18:41;35.17;;;23.83;;
8889;SDS011;4481;43.406;24.454;2023-02-25T05:21:09;40.60;;;24.10;;
8889;SDS011;4481;43.406;24.454;2023-02-25T05:23:37;39.20;;;24.37;;
8889;SDS011;4481;43.406;24.454;2023-02-25T05:26:03;42.10;;;26.00;;
8889;SDS011;4481;43.406;24.454;2023-02-25T05:28:30;47.87;;;30.47;;
8889;SDS011;4481;43.406;24.454;2023-02-25T05:30:56;46.07;;;28.67;;
8889;SDS011;4481;43.406;24.454;2023-02-25T05:33:22;47.53;;;28.10;;
8889;SDS011;4481;43.406;24.454;2023-02-25T05:35:49;48.00;;;28.30;;
8889;SDS011;4481;43.406;24.454;2023-02-25T05:38:16;42.67;;;27.40;;
8889;SDS011;4481;43.406;24.454;2023-02-25T05:40:42;39.60;;;26.70;;
8889;SDS011;4481;43.406;24.454;2023-02-25T05:43:08;42.07;;;27.83;;
8889;SDS011;4481;43.406;24.454;2023-02-25T05:45:34;42.43;;;27.60;;
8889;SDS011;4481;43.406;24.454;2023-02-25T05:48:00;42.60;;;27.10;;
8889;SDS011;4481;43.406;24.454;2023-02-25T05:50:26;44.07;;;28.53;;
8889;SDS011;4481;43.406;24.454;2023-02-25T05:52:53;49.77;;;28.87;;
8889;SDS011;4481;43.406;24.454;2023-02-25T05:55:19;42.17;;;28.77;;
8889;SDS011;4481;43.406;24.454;2023-02-25T05:57:46;51.30;;;32.93;;
8889;SDS011;4481;43.406;24.454;2023-02-25T06:00:12;52.60;;;30.40;;
8889;SDS011;4481;43.406;24.454;2023-02-25T06:02:39;44.17;;;26.70;;
8889;SDS011;4481;43.406;24.454;2023-02-25T06:05:06;47.07;;;27.80;;
8889;SDS011;4481;43.406;24.454;2023-02-25T06:07:32;45.53;;;26.60;;
8889;SDS011;4481;43.406;24.454;2023-02-25T06:09:59;44.60;;;27.67;;
8889;SDS011;4481;43.406;24.454;2023-02-25T06:12:29;40.90;;;25.37;;
8889;SDS011;4481;43.406;24.454;2023-02-25T06:14:57;40.93;;;23.87;;
8889;SDS011;4481;43.406;24.454;2023-02-25T06:17:23;36.77;;;22.63;;
8889;SDS011;4481;43.406;24.454;2023-02-25T06:19:50;43.63;;;25.33;;
8889;SDS011;4481;43.406;24.454;2023-02-25T06:22:16;40.07;;;22.93;;
8889;SDS011;4481;43.406;24.454;2023-02-25T06:24:42;33.13;;;24.03;;
8889;SDS011;4481;43.406;24.454;2023-02-25T06:27:09;31.13;;;22.57;;
8889;SDS011;4481;43.406;24.454;2023-02-25T06:29:35;32.60;;;20.90;;
8889;SDS011;4481;43.406;24.454;2023-02-25T06:32:05;35.27;;;23.80;;
8889;SDS011;4481;43.406;24.454;2023-02-25T06:34:31;40.40;;;26.93;;
8889;SDS011;4481;43.406;24.454;2023-02-25T06:36:58;36.63;;;27.33;;
8889;SDS011;4481;43.406;24.454;2023-02-25T06:39:25;35.57;;;26.93;;
8889;SDS011;4481;43.406;24.454;2023-02-25T06:41:51;41.57;;;27.80;;
8889;SDS011;4481;43.406;24.454;2023-02-25T06:44:18;41.47;;;28.73;;
8889;SDS011;4481;43.406;24.454;2023-02-25T06:46:44;40.37;;;27.50;;
8889;SDS011;4481;43.406;24.454;2023-02-25T06:49:10;40.57;;;26.50;;
8889;SDS011;4481;43.406;24.454;2023-02-25T06:51:36;42.23;;;29.10;;
8889;SDS011;4481;43.406;24.454;2023-02-25T06:54:03;47.17;;;30.57;;
8889;SDS011;4481;43.406;24.454;2023-02-25T06:56:29;44.80;;;31.70;;
8889;SDS011;4481;43.406;24.454;2023-02-25T06:58:55;44.33;;;29.33;;
8889;SDS011;4481;43.406;24.454;2023-02-25T07:01:24;50.13;;;28.57;;
8889;SDS011;4481;43.406;24.454;2023-02-25T07:03:50;38.70;;;30.10;;
8889;SDS011;4481;43.406;24.454;2023-02-25T07:06:17;40.60;;;29.00;;
8889;SDS011;4481;43.406;24.454;2023-02-25T07:08:44;45.33;;;28.03;;
8889;SDS011;4481;43.406;24.454;2023-02-25T07:11:11;37.73;;;26.73;;
8889;SDS011;4481;43.406;24.454;2023-02-25T07:13:38;36.20;;;26.23;;
8889;SDS011;4481;43.406;24.454;2023-02-25T07:16:07;36.17;;;24.13;;
8889;SDS011;4481;43.406;24.454;2023-02-25T07:18:34;41.93;;;26.33;;
8889;SDS011;4481;43.406;24.454;2023-02-25T07:21:00;39.27;;;25.33;;
8889;SDS011;4481;43.406;24.454;2023-02-25T07:23:26;30.83;;;23.47;;
8889;SDS011;4481;43.406;24.454;2023-02-25T07:25:53;36.57;;;25.37;;
8889;SDS011;4481;43.406;24.454;2023-02-25T07:28:19;35.57;;;23.57;;
8889;SDS011;4481;43.406;24.454;2023-02-25T07:30:45;34.13;;;23.23;;
8889;SDS011;4481;43.406;24.454;2023-02-25T07:33:11;31.37;;;22.10;;
8889;SDS011;4481;43.406;24.454;2023-02-25T07:35:38;27.27;;;20.87;;
8889;SDS011;4481;43.406;24.454;2023-02-25T07:38:04;28.23;;;22.23;;
8889;SDS011;4481;43.406;24.454;2023-02-25T07:40:31;35.20;;;21.47;;
8889;SDS011;4481;43.406;24.454;2023-02-25T07:42:57;28.07;;;20.27;;
8889;SDS011;4481;43.406;24.454;2023-02-25T07:45:23;31.63;;;20.67;;
8889;SDS011;4481;43.406;24.454;2023-02-25T07:47:51;29.97;;;21.10;;
8889;SDS011;4481;43.406;24.454;2023-02-25T07:50:18;33.20;;;21.97;;
8889;SDS011;4481;43.406;24.454;2023-02-25T07:52:44;39.37;;;22.50;;
8889;SDS011;4481;43.406;24.454;2023-02-25T07:55:11;33.87;;;21.80;;
8889;SDS011;4481;43.406;24.454;2023-02-25T07:57:37;33.97;;;21.20;;
8889;SDS011;4481;43.406;24.454;2023-02-25T08:00:03;37.00;;;21.70;;
8889;SDS011;4481;43.406;24.454;2023-02-25T08:02:34;33.43;;;22.00;;
8889;SDS011;4481;43.406;24.454;2023-02-25T08:05:00;25.83;;;21.40;;
8889;SDS011;4481;43.406;24.454;2023-02-25T08:07:27;31.13;;;22.57;;
8889;SDS011;4481;43.406;24.454;2023-02-25T08:09:54;32.20;;;22.87;;
8889;SDS011;4481;43.406;24.454;2023-02-25T08:12:20;32.63;;;23.33;;
8889;SDS011;4481;43.406;24.454;2023-02-25T08:14:47;40.20;;;24.23;;
8889;SDS011;4481;43.406;24.454;2023-02-25T08:17:13;30.13;;;22.90;;
8889;SDS011;4481;43.406;24.454;2023-02-25T08:19:40;34.13;;;23.00;;
8889;SDS011;4481;43.406;24.454;2023-02-25T08:22:07;38.30;;;28.07;;
8889;SDS011;4481;43.406;24.454;2023-02-25T08:24:36;42.20;;;26.90;;
8889;SDS011;4481;43.406;24.454;2023-02-25T08:27:02;37.97;;;26.60;;
8889;SDS011;4481;43.406;24.454;2023-02-25T08:29:31;36.77;;;26.07;;
8889;SDS011;4481;43.406;24.454;2023-02-25T08:31:57;49.80;;;33.97;;
8889;SDS011;4481;43.406;24.454;2023-02-25T08:34:23;77.00;;;51.47;;
8889;SDS011;4481;43.406;24.454;2023-02-25T08:36:50;65.23;;;43.00;;
8889;SDS011;4481;43.406;24.454;2023-02-25T08:39:16;47.10;;;33.83;;
8889;SDS011;4481;43.406;24.454;2023-02-25T08:41:42;37.03;;;27.57;;
8889;SDS011;4481;43.406;24.454;2023-02-25T08:44:09;31.37;;;21.60;;
8889;SDS011;4481;43.406;24.454;2023-02-25T08:46:36;27.70;;;18.97;;
8889;SDS011;4481;43.406;24.454;2023-02-25T08:49:02;23.83;;;18.83;;
8889;SDS011;4481;43.406;24.454;2023-02-25T08:51:31;29.70;;;20.37;;
8889;SDS011;4481;43.406;24.454;2023-02-25T08:54:01;24.80;;;19.63;;
8889;SDS011;4481;43.406;24.454;2023-02-25T08:56:28;29.77;;;19.50;;
8889;SDS011;4481;43.406;24.454;2023-02-25T08:58:54;34.17;;;22.83;;
8889;SDS011;4481;43.406;24.454;2023-02-25T09:01:21;31.30;;;20.97;;
8889;SDS011;4481;43.406;24.454;2023-02-25T09:03:48;29.17;;;22.17;;
8889;SDS011;4481;43.406;24.454;2023-02-25T09:06:17;29.97;;;21.40;;
8889;SDS011;4481;43.406;24.454;2023-02-25T09:08:43;28.33;;;22.53;;
8889;SDS011;4481;43.406;24.454;2023-02-25T09:11:10;35.83;;;23.37;;
8889;SDS011;4481;43.406;24.454;2023-02-25T09:13:36;33.50;;;22.57;;
8889;SDS011;4481;43.406;24.454;2023-02-25T09:16:02;32.90;;;21.77;;
8889;SDS011;4481;43.406;24.454;2023-02-25T09:18:30;34.50;;;21.87;;
8889;SDS011;4481;43.406;24.454;2023-02-25T09:20:56;33.93;;;22.73;;
8889;SDS011;4481;43.406;24.454;2023-02-25T09:23:22;30.57;;;21.67;;
8889;SDS011;4481;43.406;24.454;2023-02-25T09:25:48;33.33;;;20.17;;
8889;SDS011;4481;43.406;24.454;2023-02-25T09:28:15;30.60;;;20.87;;
8889;SDS011;4481;43.406;24.454;2023-02-25T09:30:43;24.80;;;17.70;;
8889;SDS011;4481;43.406;24.454;2023-02-25T09:33:10;27.47;;;21.47;;
8889;SDS011;4481;43.406;24.454;2023-02-25T09:35:37;37.57;;;21.87;;
8889;SDS011;4481;43.406;24.454;2023-02-25T09:38:04;41.60;;;23.03;;
8889;SDS011;4481;43.406;24.454;2023-02-25T09:40:31;41.33;;;25.20;;
8889;SDS011;4481;43.406;24.454;2023-02-25T09:43:01;47.53;;;27.50;;
8889;SDS011;4481;43.406;24.454;2023-02-25T09:45:33;40.83;;;26.50;;
8889;SDS011;4481;43.406;24.454;2023-02-25T09:48:02;42.10;;;24.03;;
8889;SDS011;4481;43.406;24.454;2023-02-25T09:50:39;31.63;;;23.03;;
8889;SDS011;4481;43.406;24.454;2023-02-25T09:53:09;41.13;;;25.30;;
8889;SDS011;4481;43.406;24.454;2023-02-25T09:55:42;37.43;;;25.10;;
8889;SDS011;4481;43.406;24.454;2023-02-25T09:58:13;67.20;;;43.37;;
8889;SDS011;4481;43.406;24.454;2023-02-25T10:00:47;36.70;;;28.03;;
8889;SDS011;4481;43.406;24.454;2023-02-25T10:03:20;40.53;;;26.90;;
8889;SDS011;4481;43.406;24.454;2023-02-25T10:05:53;41.97;;;28.83;;
8889;SDS011;4481;43.406;24.454;2023-02-25T10:08:25;30.37;;;23.17;;
8889;SDS011;4481;43.406;24.454;2023-02-25T10:10:59;29.13;;;21.60;;
8889;SDS011;4481;43.406;24.454;2023-02-25T10:13:34;33.10;;;23.10;;
8889;SDS011;4481;43.406;24.454;2023-02-25T10:16:12;26.13;;;19.83;;
8889;SDS011;4481;43.406;24.454;2023-02-25T10:18:57;82.20;;;44.30;;
8889;SDS011;4481;43.406;24.454;2023-02-25T10:21:36;48.93;;;30.03;;
8889;SDS011;4481;43.406;24.454;2023-02-25T10:24:19;27.77;;;21.23;;
8889;SDS011;4481;43.406;24.454;2023-02-25T10:26:54;27.27;;;20.17;;
8889;SDS011;4481;43.406;24.454;2023-02-25T10:29:29;37.70;;;25.37;;
8889;SDS011;4481;43.406;24.454;2023-02-25T10:31:59;47.57;;;32.07;;
8889;SDS011;4481;43.406;24.454;2023-02-25T10:34:40;47.07;;;29.23;;
8889;SDS011;4481;43.406;24.454;2023-02-25T10:37:09;39.07;;;25.50;;
8889;SDS011;4481;43.406;24.454;2023-02-25T10:39:42;46.40;;;29.33;;
8889;SDS011;4481;43.406;24.454;2023-02-25T10:42:12;29.80;;;20.13;;
8889;SDS011;4481;43.406;24.454;2023-02-25T10:44:39;34.30;;;20.87;;
8889;SDS011;4481;43.406;24.454;2023-02-25T10:47:08;41.57;;;26.83;;
8889;SDS011;4481;43.406;24.454;2023-02-25T10:49:39;32.23;;;20.70;;
8889;SDS011;4481;43.406;24.454;2023-02-25T10:52:06;38.43;;;22.20;;
8889;SDS011;4481;43.406;24.454;2023-02-25T10:54:44;41.20;;;26.70;;
8889;SDS011;4481;43.406;24.454;2023-02-25T10:57:12;39.80;;;24.53;;
8889;SDS011;4481;43.406;24.454;2023-02-25T10:59:40;41.30;;;26.67;;
8889;SDS011;4481;43.406;24.454;2023-02-25T11:02:17;30.93;;;21.63;;
8889;SDS011;4481;43.406;24.454;2023-02-25T11:04:46;29.97;;;21.57;;
8889;SDS011;4481;43.406;24.454;2023-02-25T11:10:05;28.00;;;18.20;;
8889;SDS011;4481;43.406;24.454;2023-02-25T11:12:40;29.47;;;18.97;;
8889;SDS011;4481;43.406;24.454;2023-02-25T11:15:30;31.57;;;19.50;;
8889;SDS011;4481;43.406;24.454;2023-02-25T11:18:01;34.93;;;21.40;;
8889;SDS011;4481;43.406;24.454;2023-02-25T11:20:31;29.47;;;22.00;;
8889;SDS011;4481;43.406;24.454;2023-02-25T11:22:58;28.17;;;21.40;;
8889;SDS011;4481;43.406;24.454;2023-02-25T11:25:31;27.03;;;21.57;;
8889;SDS011;4481;43.406;24.454;2023-02-25T11:28:03;28.30;;;18.57;;
8889;SDS011;4481;43.406;24.454;2023-02-25T11:30:33;31.83;;;20.90;;
8889;SDS011;4481;43.406;24.454;2023-02-25T11:33:02;35.93;;;23.00;;
8889;SDS011;4481;43.406;24.454;2023-02-25T11:35:35;30.13;;;18.50;;
8889;SDS011;4481;43.406;24.454;2023-02-25T11:38:12;26.93;;;20.13;;
8889;SDS011;4481;43.406;24.454;2023-02-25T11:40:41;38.30;;;24.90;;
8889;SDS011;4481;43.406;24.454;2023-02-25T11:43:13;38.30;;;24.37;;
8889;SDS011;4481;43.406;24.454;2023-02-25T11:45:48;32.50;;;19.70;;
8889;SDS011;4481;43.406;24.454;2023-02-25T11:48:18;29.67;;;17.57;;
8889;SDS011;4481;43.406;24.454;2023-02-25T11:50:49;30.40;;;18.47;;
8889;SDS011;4481;43.406;24.454;2023-02-25T11:53:26;28.37;;;20.27;;
8889;SDS011;4481;43.406;24.454;2023-02-25T11:56:03;28.87;;;17.43;;
8889;SDS011;4481;43.406;24.454;2023-02-25T11:58:43;33.40;;;18.47;;
8889;SDS011;4481;43.406;24.454;2023-02-25T12:01:16;32.80;;;17.57;;
8889;SDS011;4481;43.406;24.454;2023-02-25T12:04:01;27.90;;;17.97;;
8889;SDS011;4481;43.406;24.454;2023-02-25T12:07:04;22.77;;;16.67;;
8889;SDS011;4481;43.406;24.454;2023-02-25T12:09:46;20.50;;;17.10;;
8889;SDS011;4481;43.406;24.454;2023-02-25T12:15:57;27.73;;;17.80;;
8889;SDS011;4481;43.406;24.454;2023-02-25T12:22:07;27.40;;;16.50;;
8889;SDS011;4481;43.406;24.454;2023-02-25T12:24:52;24.87;;;15.60;;
8889;SDS011;4481;43.406;24.454;2023-02-25T12:30:53;26.67;;;17.50;;
8889;SDS011;4481;43.406;24.454;2023-02-25T12:36:48;23.83;;;15.83;;
8889;SDS011;4481;43.406;24.454;2023-02-25T12:42:18;19.77;;;15.30;;
8889;SDS011;4481;43.406;24.454;2023-02-25T12:48:00;24.27;;;16.00;;
8889;SDS011;4481;43.406;24.454;2023-02-25T12:50:52;19.53;;;14.53;;
8889;SDS011;4481;43.406;24.454;2023-02-25T12:53:37;25.33;;;15.33;;
8889;SDS011;4481;43.406;24.454;2023-02-25T12:59:13;29.87;;;13.47;;
8889;SDS011;4481;43.406;24.454;2023-02-25T13:02:26;29.30;;;19.70;;
8889;SDS011;4481;43.406;24.454;2023-02-25T13:05:22;31.63;;;20.10;;
8889;SDS011;4481;43.406;24.454;2023-02-25T13:08:06;26.60;;;17.47;;
8889;SDS011;4481;43.406;24.454;2023-02-25T13:10:56;27.20;;;18.77;;
8889;SDS011;4481;43.406;24.454;2023-02-25T13:13:43;30.50;;;18.60;;
8889;SDS011;4481;43.406;24.454;2023-02-25T13:16:21;29.23;;;19.13;;
8889;SDS011;4481;43.406;24.454;2023-02-25T13:19:08;27.90;;;20.03;;
8889;SDS011;4481;43.406;24.454;2023-02-25T13:22:01;27.43;;;18.53;;
8889;SDS011;4481;43.406;24.454;2023-02-25T13:24:40;26.67;;;17.87;;
8889;SDS011;4481;43.406;24.454;2023-02-25T13:27:22;27.63;;;20.07;;
8889;SDS011;4481;43.406;24.454;2023-02-25T13:32:55;32.03;;;17.87;;
8889;SDS011;4481;43.406;24.454;2023-02-25T13:35:31;25.23;;;17.10;;
8889;SDS011;4481;43.406;24.454;2023-02-25T13:38:10;34.30;;;19.37;;
8889;SDS011;4481;43.406;24.454;2023-02-25T13:40:49;24.70;;;19.73;;
8889;SDS011;4481;43.406;24.454;2023-02-25T13:46:32;23.07;;;15.13;;
8889;SDS011;4481;43.406;24.454;2023-02-25T13:49:35;24.17;;;14.20;;
8889;SDS011;4481;43.406;24.454;2023-02-25T13:52:20;26.13;;;15.03;;
8889;SDS011;4481;43.406;24.454;2023-02-25T13:58:05;19.60;;;13.30;;
8889;SDS011;4481;43.406;24.454;2023-02-25T14:03:52;19.43;;;12.77;;
8889;SDS011;4481;43.406;24.454;2023-02-25T14:09:55;20.83;;;13.60;;
8889;SDS011;4481;43.406;24.454;2023-02-25T14:12:40;22.40;;;12.93;;
8889;SDS011;4481;43.406;24.454;2023-02-25T14:15:20;20.87;;;13.07;;
8889;SDS011;4481;43.406;24.454;2023-02-25T14:20:52;23.80;;;14.10;;
8889;SDS011;4481;43.406;24.454;2023-02-25T14:23:29;25.23;;;14.40;;
8889;SDS011;4481;43.406;24.454;2023-02-25T14:28:59;26.30;;;15.13;;
8889;SDS011;4481;43.406;24.454;2023-02-25T14:31:39;27.03;;;18.23;;
8889;SDS011;4481;43.406;24.454;2023-02-25T14:34:17;24.77;;;15.73;;
8889;SDS011;4481;43.406;24.454;2023-02-25T14:36:58;27.47;;;17.80;;
8889;SDS011;4481;43.406;24.454;2023-02-25T14:39:59;25.30;;;18.87;;
8889;SDS011;4481;43.406;24.454;2023-02-25T14:42:40;33.70;;;21.03;;
8889;SDS011;4481;43.406;24.454;2023-02-25T14:45:31;27.63;;;18.90;;
8889;SDS011;4481;43.406;24.454;2023-02-25T14:48:02;29.90;;;19.10;;
8889;SDS011;4481;43.406;24.454;2023-02-25T14:50:34;27.70;;;19.90;;
8889;SDS011;4481;43.406;24.454;2023-02-25T14:56:21;31.03;;;21.17;;
8889;SDS011;4481;43.406;24.454;2023-02-25T14:59:31;32.83;;;21.33;;
8889;SDS011;4481;43.406;24.454;2023-02-25T15:02:29;33.70;;;21.77;;
8889;SDS011;4481;43.406;24.454;2023-02-25T15:05:21;32.37;;;21.90;;
8889;SDS011;4481;43.406;24.454;2023-02-25T15:08:15;32.10;;;22.67;;
8889;SDS011;4481;43.406;24.454;2023-02-25T15:11:02;37.97;;;24.33;;
8889;SDS011;4481;43.406;24.454;2023-02-25T15:13:48;38.17;;;27.17;;
8889;SDS011;4481;43.406;24.454;2023-02-25T15:16:38;37.80;;;28.17;;
8889;SDS011;4481;43.406;24.454;2023-02-25T15:19:26;44.57;;;29.67;;
8889;SDS011;4481;43.406;24.454;2023-02-25T15:22:17;31.87;;;24.97;;
8889;SDS011;4481;43.406;24.454;2023-02-25T15:24:46;45.20;;;27.37;;
8889;SDS011;4481;43.406;24.454;2023-02-25T15:30:15;41.70;;;29.23;;
8889;SDS011;4481;43.406;24.454;2023-02-25T15:32:50;37.43;;;27.23;;
8889;SDS011;4481;43.406;24.454;2023-02-25T15:35:22;47.27;;;32.07;;
8889;SDS011;4481;43.406;24.454;2023-02-25T15:38:09;43.70;;;30.83;;
8889;SDS011;4481;43.406;24.454;2023-02-25T15:40:43;51.53;;;33.03;;
8889;SDS011;4481;43.406;24.454;2023-02-25T15:43:34;48.60;;;33.83;;
8889;SDS011;4481;43.406;24.454;2023-02-25T15:49:16;50.43;;;32.67;;
8889;SDS011;4481;43.406;24.454;2023-02-25T15:51:46;54.23;;;33.73;;
8889;SDS011;4481;43.406;24.454;2023-02-25T16:00:08;46.97;;;31.10;;
8889;SDS011;4481;43.406;24.454;2023-02-25T16:02:54;45.00;;;31.67;;
8889;SDS011;4481;43.406;24.454;2023-02-25T16:05:23;52.40;;;34.23;;